Time;durP1;ratioP1;P1;durP2;ratioP2;P2;SDS_P1;SDS_P2;PMS_P1;PMS_P2;Temp;Humidity;BMP_temperature;BMP_pressure;BME280_temperature;BME280_humidity;BME280_pressure;Samples;Min_cycle;Max_cycle;Signal;HPM_P1;HPM_P2
2023/01/13 00:01:43;;;;;;;;;;;;;;;;;;4993326;28;19928;-68
2023/01/13 00:04:09;;;;;;;;;;;;;;;;;;4993342;28;19909;-68
2023/01/13 00:06:35;;;;;;;;;;;;;;;;;;4993131;28;19914;-69
2023/01/13 00:09:00;;;;;;;;;;;;;;;;;;4993366;28;19921;-68
2023/01/13 00:11:26;;;;;;;;;;;;;;;;;;4993246;28;19909;-69
2023/01/13 00:13:51;;;;;;;;;;;;;;;;;;4993345;28;19914;-68
2023/01/13 00:16:17;;;;;;;;;;;;;;;;;;4993252;28;19925;-68
2023/01/13 00:18:43;;;;;;;;;;;;;;;;;;4993256;28;19921;-70
2023/01/13 00:21:08;;;;;;;;;;;;;;;;;;4992989;28;20279;-68
2023/01/13 00:23:34;;;;;;;;;;;;;;;;;;4993194;28;19920;-72
2023/01/13 00:26:04;;;;;;;;;;;;;;;;;;4993251;28;20050;-69
2023/01/13 00:28:29;;;;;;;;;;;;;;;;;;4993092;28;19996;-70
2023/01/13 00:30:57;;;;;;;;;;;;;;;;;;4993196;28;20016;-68
2023/01/13 00:33:22;;;;;;;;;;;;;;;;;;4993158;28;20362;-69
2023/01/13 00:36:00;;;;;;;;;;;;;;;;;;4992771;28;19941;-70
2023/01/13 00:38:26;;;;;;;;;;;;;;;;;;4993070;28;19914;-68
2023/01/13 00:40:58;;;;;;;;;;;;;;;;;;4993182;28;19920;-71
2023/01/13 00:43:24;;;;;;;;;;;;;;;;;;4993061;28;19920;-72
2023/01/13 00:45:52;;;;;;;;;;;;;;;;;;4993018;28;19918;-71
2023/01/13 00:48:18;;;;;;;;;;;;;;;;;;4997336;28;19917;-70
2023/01/13 00:50:43;;;;;;;;;;;;;;;;;;5012379;28;20397;-69
2023/01/13 00:53:09;;;;;;;;;;;;;;;;;;5012557;28;19919;-71
2023/01/13 00:55:34;;;;;;;;;;;;;;;;;;5012462;28;19921;-71
2023/01/13 00:58:02;;;;;;;;;;;;;;;;;;4994759;28;19925;-72
2023/01/13 01:00:31;;;;;;;;;;;;;;;;;;4992959;28;20056;-72
2023/01/13 01:02:56;;;;;;;;;;;;;;;;;;4994749;28;19917;-71
2023/01/13 01:05:21;;;;;;;;;;;;;;;;;;4996383;28;19921;-73
2023/01/13 01:07:47;;;;;;;;;;;;;;;;;;4996487;28;19921;-72
2023/01/13 01:10:12;;;;;;;;;;;;;;;;;;4996481;28;19914;-72
2023/01/13 01:12:37;;;;;;;;;;;;;;;;;;4996656;28;19913;-70
2023/01/13 01:15:04;;;;;;;;;;;;;;;;;;4996371;28;19918;-71
2023/01/13 01:17:30;;;;;;;;;;;;;;;;;;4996702;28;20001;-69
2023/01/13 01:19:55;;;;;;;;;;;;;;;;;;4996321;28;20355;-69
2023/01/13 01:22:21;;;;;;;;;;;;;;;;;;4996237;28;19922;-72
2023/01/13 01:24:46;;;;;;;;;;;;;;;;;;4996214;28;20362;-70
2023/01/13 01:27:11;;;;;;;;;;;;;;;;;;4996233;28;19956;-71
2023/01/13 01:29:37;;;;;;;;;;;;;;;;;;4996099;28;19956;-71
2023/01/13 01:32:02;;;;;;;;;;;;;;;;;;4996001;28;19913;-69
2023/01/13 01:34:27;;;;;;;;;;;;;;;;;;4995949;28;19921;-73
2023/01/13 01:36:52;;;;;;;;;;;;;;;;;;4997226;28;19920;-73
2023/01/13 01:39:18;;;;;;;;;;;;;;;;;;4995974;28;19914;-71
2023/01/13 01:43:57;;;;;;;;;;;;;;;;;;4995812;28;20465;-72
2023/01/13 01:44:41;;;;;;;;;;;;;;;;;;4995866;28;19945;-72
2023/01/13 01:47:07;;;;;;;;;;;;;;;;;;4995482;28;19956;-72
2023/01/13 01:49:34;;;;;;;;;;;;;;;;;;5010414;28;19925;-73
2023/01/13 01:51:59;;;;;;;;;;;;;;;;;;5015271;28;19913;-73
2023/01/13 01:54:29;;;;;;;;;;;;;;;;;;5015235;28;19920;-71
2023/01/13 01:56:55;;;;;;;;;;;;;;;;;;5015255;28;20424;-71
2023/01/13 01:59:20;;;;;;;;;;;;;;;;;;5015134;28;19969;-72
2023/01/13 02:01:45;;;;;;;;;;;;;;;;;;5014856;28;19917;-73
2023/01/13 02:04:16;;;;;;;;;;;;;;;;;;5015028;28;20278;-73
2023/01/13 02:06:43;;;;;;;;;;;;;;;;;;5015005;28;19965;-73
2023/01/13 02:09:08;;;;;;;;;;;;;;;;;;5015043;28;19956;-71
2023/01/13 02:14:19;;;;;;;;;;;;;;;;;;5014284;28;19939;-73
2023/01/13 02:17:05;;;;;;;;;;;;;;;;;;5014535;28;20076;-72
2023/01/13 02:19:33;;;;;;;;;;;;;;;;;;5014354;28;20012;-72
2023/01/13 02:22:07;;;;;;;;;;;;;;;;;;5014787;28;19920;-73
2023/01/13 02:24:54;;;;;;;;;;;;;;;;;;5014782;28;19984;-69
2023/01/13 02:27:19;;;;;;;;;;;;;;;;;;5014603;28;20391;-73
2023/01/13 02:32:35;;;;;;;;;;;;;;;;;;5014707;28;20313;-72
2023/01/13 02:35:14;;;;;;;;;;;;;;;;;;5013131;28;19918;-72
2023/01/13 02:37:41;;;;;;;;;;;;;;;;;;5014309;28;20012;-72
2023/01/13 02:40:15;;;;;;;;;;;;;;;;;;5014384;28;20293;-72
2023/01/13 02:45:51;;;;;;;;;;;;;;;;;;5014109;28;19920;-69
2023/01/13 02:48:19;;;;;;;;;;;;;;;;;;5013851;28;19940;-69
2023/01/13 02:50:47;;;;;;;;;;;;;;;;;;5014194;28;20425;-69
2023/01/13 02:53:25;;;;;;;;;;;;;;;;;;5014141;28;19914;-69
2023/01/13 02:55:52;;;;;;;;;;;;;;;;;;5014103;28;19914;-69
2023/01/13 02:58:20;;;;;;;;;;;;;;;;;;5014104;28;20015;-69
2023/01/13 03:00:47;;;;;;;;;;;;;;;;;;5013957;28;19921;-70
2023/01/13 03:03:12;;;;;;;;;;;;;;;;;;5014030;28;19920;-70
2023/01/13 03:05:39;;;;;;;;;;;;;;;;;;5013816;28;19917;-69
2023/01/13 03:08:30;;;;;;;;;;;;;;;;;;5013956;28;19917;-69
2023/01/13 03:11:06;;;;;;;;;;;;;;;;;;4972649;28;20025;-70
2023/01/13 03:13:54;;;;;;;;;;;;;;;;;;4972208;28;19952;-69
2023/01/13 03:16:26;;;;;;;;;;;;;;;;;;4972500;28;20005;-69
2023/01/13 03:18:57;;;;;;;;;;;;;;;;;;4972592;28;20378;-69
2023/01/13 03:21:25;;;;;;;;;;;;;;;;;;4972469;28;20399;-72
2023/01/13 03:23:59;;;;;;;;;;;;;;;;;;4972499;28;20020;-68
2023/01/13 03:26:31;;;;;;;;;;;;;;;;;;4972457;28;19914;-73
2023/01/13 03:29:17;;;;;;;;;;;;;;;;;;4972130;28;19914;-73
2023/01/13 03:31:45;;;;;;;;;;;;;;;;;;4972282;28;19953;-70
2023/01/13 03:34:13;;;;;;;;;;;;;;;;;;4972083;28;19952;-72
2023/01/13 03:36:39;;;;;;;;;;;;;;;;;;4972201;28;19914;-72
2023/01/13 03:39:09;;;;;;;;;;;;;;;;;;4972222;28;19926;-72
2023/01/13 03:41:37;;;;;;;;;;;;;;;;;;4972080;28;20021;-70
2023/01/13 03:44:23;;;;;;;;;;;;;;;;;;4971680;28;20426;-73
2023/01/13 03:46:59;;;;;;;;;;;;;;;;;;4976898;28;20396;-72
2023/01/13 03:49:35;;;;;;;;;;;;;;;;;;5013033;28;19975;-72
2023/01/13 03:52:04;;;;;;;;;;;;;;;;;;5012051;28;19917;-74
2023/01/13 03:54:31;;;;;;;;;;;;;;;;;;5013195;28;20329;-72
2023/01/13 03:56:59;;;;;;;;;;;;;;;;;;5013150;28;19921;-71
2023/01/13 03:59:28;;;;;;;;;;;;;;;;;;5012856;28;19913;-72
2023/01/13 04:01:58;;;;;;;;;;;;;;;;;;5013123;28;20033;-73
2023/01/13 04:04:35;;;;;;;;;;;;;;;;;;5012957;28;19979;-70
2023/01/13 04:07:03;;;;;;;;;;;;;;;;;;5013016;28;20015;-72
2023/01/13 04:09:29;;;;;;;;;;;;;;;;;;5012956;28;19920;-73
2023/01/13 04:12:02;;;;;;;;;;;;;;;;;;5012860;28;20004;-72
2023/01/13 04:14:28;;;;;;;;;;;;;;;;;;5012949;28;20324;-68
2023/01/13 04:16:54;;;;;;;;;;;;;;;;;;5012836;28;19919;-69
2023/01/13 04:19:19;;;;;;;;;;;;;;;;;;5012952;28;19913;-69
2023/01/13 04:21:45;;;;;;;;;;;;;;;;;;5012647;28;19971;-72
2023/01/13 04:24:10;;;;;;;;;;;;;;;;;;5012924;28;19995;-72
2023/01/13 04:26:35;;;;;;;;;;;;;;;;;;5012631;28;19917;-72
2023/01/13 04:29:01;;;;;;;;;;;;;;;;;;5012713;28;19920;-72
2023/01/13 04:31:26;;;;;;;;;;;;;;;;;;5012841;28;20335;-72
2023/01/13 04:33:51;;;;;;;;;;;;;;;;;;5012724;28;19917;-74
2023/01/13 04:36:18;;;;;;;;;;;;;;;;;;5012659;28;19914;-74
2023/01/13 04:38:43;;;;;;;;;;;;;;;;;;5016064;28;19910;-73
2023/01/13 04:41:09;;;;;;;;;;;;;;;;;;5016468;28;20327;-72
2023/01/13 04:43:34;;;;;;;;;;;;;;;;;;5016643;28;19913;-73
2023/01/13 04:45:59;;;;;;;;;;;;;;;;;;5016527;28;19909;-72
2023/01/13 04:48:24;;;;;;;;;;;;;;;;;;5016151;28;20446;-72
2023/01/13 04:50:50;;;;;;;;;;;;;;;;;;5016537;28;19917;-73
2023/01/13 04:53:15;;;;;;;;;;;;;;;;;;5016490;28;20000;-71
2023/01/13 04:55:40;;;;;;;;;;;;;;;;;;5015968;28;20373;-73
2023/01/13 04:58:07;;;;;;;;;;;;;;;;;;5016348;28;19913;-72
2023/01/13 05:00:32;;;;;;;;;;;;;;;;;;5016230;28;20422;-71
2023/01/13 05:02:58;;;;;;;;;;;;;;;;;;5016294;28;19963;-71
2023/01/13 05:05:23;;;;;;;;;;;;;;;;;;5016057;28;19967;-72
2023/01/13 05:07:49;;;;;;;;;;;;;;;;;;5016043;28;20346;-72
2023/01/13 05:10:14;;;;;;;;;;;;;;;;;;5015914;28;19924;-72
2023/01/13 05:18:08;;;;;;;;;;;;;;;;;;5016035;28;19924;-72
2023/01/13 05:20:33;;;;;;;;;;;;;;;;;;5015770;28;19913;-70
2023/01/13 05:25:42;;;;;;;;;;;;;;;;;;5015512;28;19936;-69
2023/01/13 05:28:08;;;;;;;;;;;;;;;;;;5015600;28;20375;-70
2023/01/13 05:30:41;;;;;;;;;;;;;;;;;;5015743;28;19968;-70
2023/01/13 05:33:06;;;;;;;;;;;;;;;;;;5015701;28;19913;-72
2023/01/13 05:35:31;;;;;;;;;;;;;;;;;;5015528;28;20366;-71
2023/01/13 05:37:57;;;;;;;;;;;;;;;;;;5015622;28;20325;-69
2023/01/13 05:43:24;;;;;;;;;;;;;;;;;;5015451;28;19920;-74
2023/01/13 05:45:51;;;;;;;;;;;;;;;;;;5015189;28;20362;-68
2023/01/13 05:48:17;;;;;;;;;;;;;;;;;;5014120;28;20075;-73
2023/01/13 05:50:43;;;;;;;;;;;;;;;;;;5013334;28;20363;-70
2023/01/13 05:53:09;;;;;;;;;;;;;;;;;;5015018;28;19909;-73
2023/01/13 05:55:34;;;;;;;;;;;;;;;;;;5014924;28;20286;-72
2023/01/13 05:57:59;;;;;;;;;;;;;;;;;;5013809;28;19913;-72
2023/01/13 06:00:25;;;;;;;;;;;;;;;;;;5015033;28;19931;-72
2023/01/13 06:02:50;;;;;;;;;;;;;;;;;;5014968;28;19924;-74
2023/01/13 06:05:15;;;;;;;;;;;;;;;;;;5014655;28;19913;-74
2023/01/13 06:07:41;;;;;;;;;;;;;;;;;;5014405;28;19925;-74
2023/01/13 06:10:06;;;;;;;;;;;;;;;;;;5014867;28;19919;-72
2023/01/13 06:12:32;;;;;;;;;;;;;;;;;;5014943;28;19913;-70
2023/01/13 06:14:57;;;;;;;;;;;;;;;;;;5014917;28;19920;-71
2023/01/13 06:17:22;;;;;;;;;;;;;;;;;;5015287;28;19914;-72
2023/01/13 06:19:48;;;;;;;;;;;;;;;;;;5014720;28;20294;-70
2023/01/13 06:22:17;;;;;;;;;;;;;;;;;;5014423;28;20359;-68
2023/01/13 06:24:47;;;;;;;;;;;;;;;;;;5014714;28;19917;-69
2023/01/13 06:27:13;;;;;;;;;;;;;;;;;;5014491;28;19913;-72
2023/01/13 06:29:38;;;;;;;;;;;;;;;;;;5014531;28;19917;-70
2023/01/13 06:32:05;;;;;;;;;;;;;;;;;;5014362;28;19918;-68
2023/01/13 06:34:32;;;;;;;;;;;;;;;;;;5014481;28;19975;-71
2023/01/13 06:36:57;;;;;;;;;;;;;;;;;;5014242;28;20328;-72
2023/01/13 06:39:24;;;;;;;;;;;;;;;;;;5014377;28;19920;-71
2023/01/13 06:44:34;;;;;;;;;;;;;;;;;;5014274;28;19920;-68
2023/01/13 06:46:59;;;;;;;;;;;;;;;;;;5014026;28;19913;-68
2023/01/13 06:49:25;;;;;;;;;;;;;;;;;;5013726;28;19918;-68
2023/01/13 06:51:50;;;;;;;;;;;;;;;;;;5013956;28;19913;-68
2023/01/13 06:54:15;;;;;;;;;;;;;;;;;;5013973;28;20354;-67
2023/01/13 06:56:41;;;;;;;;;;;;;;;;;;5014032;28;19960;-73
2023/01/13 06:59:06;;;;;;;;;;;;;;;;;;5013978;28;19921;-68
2023/01/13 07:01:31;;;;;;;;;;;;;;;;;;5013432;28;20370;-71
2023/01/13 07:03:57;;;;;;;;;;;;;;;;;;5013976;28;20014;-68
2023/01/13 07:06:22;;;;;;;;;;;;;;;;;;5013488;28;20384;-72
2023/01/13 07:08:47;;;;;;;;;;;;;;;;;;5013909;28;19920;-71
2023/01/13 07:11:13;;;;;;;;;;;;;;;;;;5013891;28;19910;-72
2023/01/13 07:16:23;;;;;;;;;;;;;;;;;;5013812;28;19921;-72
2023/01/13 07:18:48;;;;;;;;;;;;;;;;;;5013535;28;19960;-68
2023/01/13 07:21:17;;;;;;;;;;;;;;;;;;5013476;28;19917;-68
2023/01/13 07:23:43;;;;;;;;;;;;;;;;;;5013573;28;20396;-68
2023/01/13 07:26:09;;;;;;;;;;;;;;;;;;5013568;28;19961;-71
2023/01/13 07:28:34;;;;;;;;;;;;;;;;;;5013514;28;19936;-71
2023/01/13 07:30:59;;;;;;;;;;;;;;;;;;5013397;28;19925;-72
2023/01/13 07:33:25;;;;;;;;;;;;;;;;;;5012925;28;19960;-70
2023/01/13 07:35:56;;;;;;;;;;;;;;;;;;5013040;28;19913;-71
2023/01/13 07:38:22;;;;;;;;;;;;;;;;;;5013364;28;20422;-71
2023/01/13 07:40:47;;;;;;;;;;;;;;;;;;5013524;28;19917;-71
2023/01/13 07:43:31;;;;;;;;;;;;;;;;;;5013367;28;19936;-71
2023/01/13 07:45:57;;;;;;;;;;;;;;;;;;5013450;28;19913;-71
2023/01/13 07:48:23;;;;;;;;;;;;;;;;;;5012841;28;20377;-71
2023/01/13 07:50:48;;;;;;;;;;;;;;;;;;5013046;28;19913;-71
2023/01/13 07:53:13;;;;;;;;;;;;;;;;;;5013171;28;19913;-71
2023/01/13 07:55:42;;;;;;;;;;;;;;;;;;5012990;28;19918;-71
2023/01/13 07:58:08;;;;;;;;;;;;;;;;;;5013231;28;19913;-70
2023/01/13 08:00:33;;;;;;;;;;;;;;;;;;5013277;28;20386;-71
2023/01/13 08:02:59;;;;;;;;;;;;;;;;;;5013090;28;19962;-72
2023/01/13 08:05:24;;;;;;;;;;;;;;;;;;5001253;28;20422;-71
2023/01/13 08:07:50;;;;;;;;;;;;;;;;;;4993421;28;20007;-69
2023/01/13 08:10:15;;;;;;;;;;;;;;;;;;4993493;28;19968;-67
2023/01/13 08:15:24;;;;;;;;;;;;;;;;;;4975549;28;19945;-68
2023/01/13 08:17:49;;;;;;;;;;;;;;;;;;4972571;28;20343;-68
2023/01/13 08:20:14;;;;;;;;;;;;;;;;;;4973632;28;19914;-68
2023/01/13 08:22:40;;;;;;;;;;;;;;;;;;4973739;28;19969;-69
2023/01/13 08:25:05;;;;;;;;;;;;;;;;;;4973890;28;19914;-67
2023/01/13 08:27:31;;;;;;;;;;;;;;;;;;4973822;28;19922;-68
2023/01/13 08:29:56;;;;;;;;;;;;;;;;;;4973937;28;19997;-69
2023/01/13 08:32:21;;;;;;;;;;;;;;;;;;4973861;28;20364;-68
2023/01/13 08:34:47;;;;;;;;;;;;;;;;;;4973410;28;20082;-71
2023/01/13 08:37:12;;;;;;;;;;;;;;;;;;4973839;28;19914;-71
2023/01/13 08:39:37;;;;;;;;;;;;;;;;;;4973736;28;19955;-68
2023/01/13 08:42:04;;;;;;;;;;;;;;;;;;4973778;28;20429;-68
2023/01/13 08:44:30;;;;;;;;;;;;;;;;;;4973593;28;19914;-70
2023/01/13 08:46:56;;;;;;;;;;;;;;;;;;4973475;28;19921;-69
2023/01/13 08:49:22;;;;;;;;;;;;;;;;;;4986323;28;19925;-68
2023/01/13 08:51:47;;;;;;;;;;;;;;;;;;4992951;28;19949;-67
2023/01/13 08:54:13;;;;;;;;;;;;;;;;;;4992985;28;19991;-68
2023/01/13 08:56:39;;;;;;;;;;;;;;;;;;4992316;28;19913;-71
2023/01/13 08:59:04;;;;;;;;;;;;;;;;;;4993174;28;20389;-69
2023/01/13 09:01:30;;;;;;;;;;;;;;;;;;4992929;28;19917;-68
2023/01/13 09:03:56;;;;;;;;;;;;;;;;;;4993150;28;20386;-71
2023/01/13 09:06:21;;;;;;;;;;;;;;;;;;4992570;28;19916;-68
2023/01/13 09:08:46;;;;;;;;;;;;;;;;;;4992778;28;19925;-67
2023/01/13 09:14:00;;;;;;;;;;;;;;;;;;4992934;28;19976;-70
2023/01/13 09:16:25;;;;;;;;;;;;;;;;;;4992645;28;19918;-71
2023/01/13 09:18:50;;;;;;;;;;;;;;;;;;4991389;28;20375;-70
2023/01/13 09:21:18;;;;;;;;;;;;;;;;;;4992783;28;19940;-71
2023/01/13 09:23:43;;;;;;;;;;;;;;;;;;4994156;28;19914;-69
2023/01/13 09:26:09;;;;;;;;;;;;;;;;;;4996004;28;19922;-70
2023/01/13 09:28:35;;;;;;;;;;;;;;;;;;4995983;28;19936;-71
2023/01/13 09:31:00;;;;;;;;;;;;;;;;;;4995174;28;19929;-70
2023/01/13 09:36:09;;;;;;;;;;;;;;;;;;5015179;28;20317;-69
2023/01/13 09:38:34;;;;;;;;;;;;;;;;;;5015724;28;20004;-71
2023/01/13 09:40:59;;;;;;;;;;;;;;;;;;5004174;28;20279;-67
2023/01/13 09:46:42;;;;;;;;;;;;;;;;;;4995871;28;19960;-72
2023/01/13 09:49:02;;;;;;;;;;;;;;;;;;5005704;28;19917;-69
2023/01/13 09:51:34;;;;;;;;;;;;;;;;;;5015426;28;19960;-69
2023/01/13 09:54:11;;;;;;;;;;;;;;;;;;5015303;28;19909;-69
2023/01/13 09:56:36;;;;;;;;;;;;;;;;;;5015236;28;19914;-68
2023/01/13 09:59:02;;;;;;;;;;;;;;;;;;4996091;28;20470;-69
2023/01/13 10:01:34;;;;;;;;;;;;;;;;;;4995393;28;19981;-71
2023/01/13 10:04:09;;;;;;;;;;;;;;;;;;4994245;28;20363;-69
2023/01/13 10:06:37;;;;;;;;;;;;;;;;;;4995384;28;19913;-71
2023/01/13 10:09:03;;;;;;;;;;;;;;;;;;4988328;28;20367;-71
2023/01/13 10:14:27;;;;;;;;;;;;;;;;;;4995288;28;19920;-69
2023/01/13 10:16:58;;;;;;;;;;;;;;;;;;4995234;28;20339;-68
2023/01/13 10:19:42;;;;;;;;;;;;;;;;;;4996506;28;19937;-69
2023/01/13 10:22:07;;;;;;;;;;;;;;;;;;4995282;28;20290;-69
2023/01/13 10:24:44;;;;;;;;;;;;;;;;;;4995137;28;20000;-69
2023/01/13 10:27:36;;;;;;;;;;;;;;;;;;4995095;28;19914;-69
2023/01/13 10:30:10;;;;;;;;;;;;;;;;;;4998186;28;20101;-69
2023/01/13 10:32:35;;;;;;;;;;;;;;;;;;5014694;28;19913;-68
2023/01/13 10:35:01;;;;;;;;;;;;;;;;;;5013844;28;20283;-69
2023/01/13 10:37:27;;;;;;;;;;;;;;;;;;5014500;28;19921;-68
2023/01/13 10:39:56;;;;;;;;;;;;;;;;;;5014543;28;19963;-69
2023/01/13 10:42:22;;;;;;;;;;;;;;;;;;5014317;28;19926;-67
2023/01/13 10:44:58;;;;;;;;;;;;;;;;;;5014031;28;19959;-69
2023/01/13 10:47:28;;;;;;;;;;;;;;;;;;5014073;28;19917;-69
2023/01/13 10:50:12;;;;;;;;;;;;;;;;;;5013940;28;19964;-68
2023/01/13 10:52:53;;;;;;;;;;;;;;;;;;5014419;28;19920;-69
2023/01/13 10:55:36;;;;;;;;;;;;;;;;;;5014029;28;20016;-69
2023/01/13 10:58:11;;;;;;;;;;;;;;;;;;5014008;28;20444;-72
2023/01/13 11:00:36;;;;;;;;;;;;;;;;;;5014055;28;19910;-71
2023/01/13 11:03:12;;;;;;;;;;;;;;;;;;5013969;28;20008;-71
2023/01/13 11:05:38;;;;;;;;;;;;;;;;;;5013915;28;19972;-69
2023/01/13 11:08:03;;;;;;;;;;;;;;;;;;5013972;28;19913;-69
2023/01/13 11:10:31;;;;;;;;;;;;;;;;;;5013970;28;20286;-68
2023/01/13 11:12:58;;;;;;;;;;;;;;;;;;5013924;28;20438;-68
2023/01/13 11:15:38;;;;;;;;;;;;;;;;;;5014296;28;20290;-69
2023/01/13 11:18:26;;;;;;;;;;;;;;;;;;5013973;28;19917;-69
2023/01/13 11:20:53;;;;;;;;;;;;;;;;;;4972484;28;19940;-69
2023/01/13 11:23:44;;;;;;;;;;;;;;;;;;4972659;28;19968;-69
2023/01/13 11:26:25;;;;;;;;;;;;;;;;;;4966628;28;19913;-70
2023/01/13 11:28:50;;;;;;;;;;;;;;;;;;4934609;29;20380;-71
2023/01/13 11:31:19;;;;;;;;;;;;;;;;;;4953117;29;19921;-72
2023/01/13 11:33:51;;;;;;;;;;;;;;;;;;4952737;29;20017;-69
2023/01/13 11:36:19;;;;;;;;;;;;;;;;;;4953103;29;19921;-69
2023/01/13 11:38:47;;;;;;;;;;;;;;;;;;4952904;29;20004;-70
2023/01/13 11:41:12;;;;;;;;;;;;;;;;;;4952856;29;19922;-71
2023/01/13 11:43:56;;;;;;;;;;;;;;;;;;4952849;29;19914;-71
2023/01/13 11:46:24;;;;;;;;;;;;;;;;;;4952225;28;19922;-68
2023/01/13 11:48:50;;;;;;;;;;;;;;;;;;4960747;28;19922;-68
2023/01/13 11:51:33;;;;;;;;;;;;;;;;;;4972188;28;20004;-68
2023/01/13 11:54:04;;;;;;;;;;;;;;;;;;4971982;28;19914;-68
2023/01/13 11:56:43;;;;;;;;;;;;;;;;;;4971783;28;20037;-69
2023/01/13 11:59:26;;;;;;;;;;;;;;;;;;5013108;28;19940;-70
2023/01/13 12:02:10;;;;;;;;;;;;;;;;;;5013104;28;19914;-70
2023/01/13 12:04:42;;;;;;;;;;;;;;;;;;5013070;28;20008;-69
2023/01/13 12:07:12;;;;;;;;;;;;;;;;;;5013063;28;19914;-69
2023/01/13 12:09:51;;;;;;;;;;;;;;;;;;5012880;28;19914;-70
2023/01/13 12:12:32;;;;;;;;;;;;;;;;;;5012653;28;19918;-68
2023/01/13 12:15:03;;;;;;;;;;;;;;;;;;5012935;28;20008;-71
2023/01/13 12:17:28;;;;;;;;;;;;;;;;;;5012759;28;19960;-69
2023/01/13 12:19:54;;;;;;;;;;;;;;;;;;5012728;28;19917;-68
2023/01/13 12:22:26;;;;;;;;;;;;;;;;;;5012839;28;19913;-69
2023/01/13 12:25:17;;;;;;;;;;;;;;;;;;5012661;28;19925;-68
2023/01/13 12:27:47;;;;;;;;;;;;;;;;;;5010699;28;19913;-70
2023/01/13 12:30:18;;;;;;;;;;;;;;;;;;5012863;28;19920;-70
2023/01/13 12:32:44;;;;;;;;;;;;;;;;;;5012910;28;19913;-70
2023/01/13 12:35:24;;;;;;;;;;;;;;;;;;5012900;28;19960;-70
2023/01/13 12:38:08;;;;;;;;;;;;;;;;;;5012663;28;19924;-71
2023/01/13 12:40:37;;;;;;;;;;;;;;;;;;5012512;28;19968;-70
2023/01/13 12:45:52;;;;;;;;;;;;;;;;;;5012515;28;19923;-70
2023/01/13 12:48:36;;;;;;;;;;;;;;;;;;5012297;28;19917;-68
2023/01/13 12:51:02;;;;;;;;;;;;;;;;;;5012606;28;19918;-69
2023/01/13 12:53:35;;;;;;;;;;;;;;;;;;5012676;28;19920;-69
2023/01/13 12:56:39;;;;;;;;;;;;;;;;;;4999028;28;19914;-69
2023/01/13 12:59:17;;;;;;;;;;;;;;;;;;4954210;28;19954;-70
2023/01/13 13:01:43;;;;;;;;;;;;;;;;;;4955639;29;19937;-69
2023/01/13 13:04:09;;;;;;;;;;;;;;;;;;4955533;29;19915;-68
2023/01/13 13:06:36;;;;;;;;;;;;;;;;;;4955680;29;19915;-68
2023/01/13 13:09:01;;;;;;;;;;;;;;;;;;4955458;29;20325;-69
2023/01/13 13:14:13;;;;;;;;;;;;;;;;;;4955486;29;19921;-69
2023/01/13 13:18:16;;;;;;;5.88;1.42;;;;;;;;;;5069646;28;20449;-68
2023/01/13 13:20:53;;;;;;;8.35;1.73;;;;;;;;;;5068425;28;20028;-69
2023/01/13 13:26:35;;;;;;;6.87;1.77;;;;;;;;;;5064737;28;20036;-69
2023/01/13 13:29:24;;;;;;;8.82;1.70;;;;;;;;;;5067083;28;20698;-69
2023/01/13 13:31:55;;;;;;;8.80;1.48;;;;;;;;;;5068641;28;20036;-69
2023/01/13 13:34:24;;;;;;;6.85;1.23;;;;;;;;;;5069324;28;20082;-68
2023/01/13 13:37:14;;;;;;;6.00;1.55;;;;;;;;;;5069311;28;20063;-68
2023/01/13 13:48:19;;;;;;;6.13;1.50;;;;;;;;;;5069026;28;20027;-68
2023/01/13 13:51:00;;;;;;;5.90;1.40;;;;;;;;;;5068747;28;20024;-68
2023/01/13 13:53:28;;;;;;;7.40;1.50;;;;;;;;;;5068724;28;20033;-68
2023/01/13 13:55:58;;;;;;;9.50;1.75;;;;;;;;;;5068626;28;20423;-68
2023/01/13 13:58:26;;;;;;;3.83;1.30;;;;;;;;;;5067604;28;20021;-69
2023/01/13 14:00:52;;;;;;;4.13;1.23;;;;;;;;;;5068724;28;20083;-68
2023/01/13 14:03:25;;;;;;;6.30;1.75;;;;;;;;;;5068723;28;20021;-69
2023/01/13 14:05:56;;;;;;;3.72;1.02;;;;;;;;;;5068371;28;20092;-68
2023/01/13 14:08:23;;;;;;;5.30;1.13;;;;;;;;;;5068378;28;20054;-68
2023/01/13 14:10:48;;;;;;;5.65;1.58;;;;;;;;;;5068415;28;20048;-68
2023/01/13 14:13:17;;;;;;;4.13;1.67;;;;;;;;;;5068277;28;20450;-68
2023/01/13 14:15:43;;;;;;;4.88;1.52;;;;;;;;;;5068118;28;20094;-68
2023/01/13 14:18:14;;;;;;;4.20;1.40;;;;;;;;;;5067790;28;20462;-69
2023/01/13 14:20:41;;;;;;;5.90;1.40;;;;;;;;;;5067885;28;20029;-69
2023/01/13 14:23:15;;;;;;;6.28;1.80;;;;;;;;;;5068128;28;20032;-68
2023/01/13 14:25:49;;;;;;;6.68;1.85;;;;;;;;;;5067975;28;20028;-69
2023/01/13 14:28:18;;;;;;;10.65;1.90;;;;;;;;;;5062315;28;20059;-69
2023/01/13 14:30:43;;;;;;;8.10;1.45;;;;;;;;;;5054811;28;20048;-69
2023/01/13 14:33:16;;;;;;;7.80;1.65;;;;;;;;;;5054779;28;20461;-69
2023/01/13 14:36:06;;;;;;;4.03;1.50;;;;;;;;;;5054508;28;20025;-69
2023/01/13 14:38:32;;;;;;;4.97;1.70;;;;;;;;;;5054788;28;20021;-69
2023/01/13 14:41:09;;;;;;;10.15;1.73;;;;;;;;;;5053331;28;20465;-69
2023/01/13 14:43:41;;;;;;;9.85;2.30;;;;;;;;;;5054533;28;20504;-69
2023/01/13 14:46:06;;;;;;;9.48;2.55;;;;;;;;;;5054606;28;20033;-68
2023/01/13 14:48:36;;;;;;;7.85;2.05;;;;;;;;;;5054300;28;20024;-68
2023/01/13 14:51:05;;;;;;;4.90;1.95;;;;;;;;;;5054461;28;20355;-69
2023/01/13 14:53:45;;;;;;;7.32;1.48;;;;;;;;;;5054347;28;20033;-69
2023/01/13 14:56:42;;;;;;;6.43;1.63;;;;;;;;;;5054195;28;20041;-68
2023/01/13 14:59:43;;;;;;;4.93;1.75;;;;;;;;;;5054151;28;20063;-69
2023/01/13 15:02:23;;;;;;;6.47;1.70;;;;;;;;;;5054230;28;20032;-68
2023/01/13 15:04:52;;;;;;;6.22;1.63;;;;;;;;;;5055150;28;20458;-68
2023/01/13 15:07:29;;;;;;;7.18;1.55;;;;;;;;;;5073964;28;20029;-69
2023/01/13 15:09:59;;;;;;;9.65;1.45;;;;;;;;;;5074281;28;20427;-69
2023/01/13 15:12:36;;;;;;;7.30;2.13;;;;;;;;;;5074245;28;20116;-69
2023/01/13 15:15:05;;;;;;;7.72;1.50;;;;;;;;;;5073904;28;20477;-69
2023/01/13 15:17:30;;;;;;;6.07;1.60;;;;;;;;;;5073797;28;20079;-69
2023/01/13 15:19:56;;;;;;;6.00;1.60;;;;;;;;;;5059211;28;20069;-69
2023/01/13 15:22:21;;;;;;;6.25;1.55;;;;;;;;;;5054072;28;20033;-69
2023/01/13 15:24:47;;;;;;;4.43;1.10;;;;;;;;;;5053853;28;20025;-69
2023/01/13 15:27:25;;;;;;;9.75;1.65;;;;;;;;;;5053822;28;20454;-69
2023/01/13 15:29:50;;;;;;;4.38;1.35;;;;;;;;;;5053825;28;20029;-68
2023/01/13 15:32:19;;;;;;;3.67;1.38;;;;;;;;;;5053651;28;20360;-68
2023/01/13 15:34:45;;;;;;;7.25;1.48;;;;;;;;;;5053340;28;20036;-69
2023/01/13 15:37:12;;;;;;;6.18;1.83;;;;;;;;;;5053363;28;20086;-69
2023/01/13 15:39:37;;;;;;;6.43;1.63;;;;;;;;;;5052758;28;20025;-68
2023/01/13 15:47:31;;;;;;;6.38;2.70;;;;;;;;;;5053261;28;20546;-68
2023/01/13 15:49:56;;;;;;;7.55;1.77;;;;;;;;;;5053283;28;20037;-68
2023/01/13 15:52:24;;;;;;;5.15;1.52;;;;;;;;;;5053467;28;20025;-68
2023/01/13 15:54:50;;;;;;;7.75;1.67;;;;;;;;;;5053230;28;20137;-68
2023/01/13 15:57:23;;;;;;;5.88;1.40;;;;;;;;;;5053213;28;20554;-68
2023/01/13 15:59:48;;;;;;;6.43;1.88;;;;;;;;;;5053037;28;20029;-68
2023/01/13 16:02:17;;;;;;;11.65;2.15;;;;;;;;;;5052933;28;20025;-68
2023/01/13 16:04:45;;;;;;;3.63;1.67;;;;;;;;;;5052912;28;20029;-68
2023/01/13 16:07:16;;;;;;;5.78;1.55;;;;;;;;;;5053111;28;20024;-68
2023/01/13 16:09:42;;;;;;;11.25;1.83;;;;;;;;;;5052871;28;20063;-68
2023/01/13 16:12:07;;;;;;;8.00;2.25;;;;;;;;;;5052907;28;20408;-68
2023/01/13 16:14:33;;;;;;;5.50;1.58;;;;;;;;;;5052793;28;20100;-68
2023/01/13 16:17:00;;;;;;;5.55;1.70;;;;;;;;;;5052595;28;20549;-69
2023/01/13 16:19:25;;;;;;;7.80;2.30;;;;;;;;;;5052859;28;20072;-68
2023/01/13 16:21:51;;;;;;;6.28;1.90;;;;;;;;;;5052715;28;20056;-68
2023/01/13 16:24:17;;;;;;;4.68;1.45;;;;;;;;;;5052723;28;20477;-69
2023/01/13 16:26:43;;;;;;;7.35;1.42;;;;;;;;;;5052477;28;20036;-68
2023/01/13 16:29:11;;;;;;;4.55;1.33;;;;;;;;;;5052722;28;20017;-68
2023/01/13 16:31:37;;;;;;;5.22;1.50;;;;;;;;;;5052381;28;20583;-68
2023/01/13 16:34:04;;;;;;;6.72;1.58;;;;;;;;;;5052621;28;20025;-68
2023/01/13 16:36:33;;;;;;;7.40;1.35;;;;;;;;;;5052507;28;20025;-68
2023/01/13 16:38:59;;;;;;;4.55;1.23;;;;;;;;;;5052642;28;20021;-68
2023/01/13 16:41:24;;;;;;;5.18;1.88;;;;;;;;;;5052473;28;20029;-68
2023/01/13 16:43:50;;;;;;;6.05;1.52;;;;;;;;;;5052469;28;20033;-68
2023/01/13 16:46:26;;;;;;;5.57;1.38;;;;;;;;;;5052118;28;20385;-68
2023/01/13 16:48:54;;;;;;;4.88;1.60;;;;;;;;;;5052048;28;20428;-68
2023/01/13 16:51:21;;;;;;;6.47;1.77;;;;;;;;;;5052221;28;20493;-68
2023/01/13 16:53:47;;;;;;;4.00;1.42;;;;;;;;;;5051395;28;20123;-68
2023/01/13 16:56:23;;;;;;;5.93;1.40;;;;;;;;;;5071879;28;20468;-68
2023/01/13 16:58:50;;;;;;;7.55;1.30;;;;;;;;;;5072295;28;20021;-68
2023/01/13 17:01:23;;;;;;;3.28;1.40;;;;;;;;;;5072034;28;20044;-68
2023/01/13 17:03:50;;;;;;;5.22;1.30;;;;;;;;;;5071979;28;20044;-68
2023/01/13 17:06:18;;;;;;;3.78;1.20;;;;;;;;;;5072025;28;20055;-68
2023/01/13 17:08:44;;;;;;;6.93;1.58;;;;;;;;;;5072078;28;20025;-68
2023/01/13 17:11:09;;;;;;;6.88;1.52;;;;;;;;;;5072247;28;20035;-68
2023/01/13 17:13:35;;;;;;;5.55;1.40;;;;;;;;;;5071980;28;20494;-68
2023/01/13 17:16:00;;;;;;;4.97;1.55;;;;;;;;;;5071600;28;20017;-68
2023/01/13 17:18:26;;;;;;;5.45;1.35;;;;;;;;;;5072219;28;20112;-68
2023/01/13 17:20:51;;;;;;;2.50;1.40;;;;;;;;;;5058818;28;20037;-68
2023/01/13 17:23:16;;;;;;;9.50;1.45;;;;;;;;;;5052043;28;20036;-68
2023/01/13 17:25:42;;;;;;;4.35;1.40;;;;;;;;;;5051821;28;20021;-68
2023/01/13 17:28:07;;;;;;;6.20;1.85;;;;;;;;;;5051746;28;20382;-68
2023/01/13 17:30:33;;;;;;;7.72;1.60;;;;;;;;;;5051553;28;20116;-68